createdAt,value
2023-06-04T00:01:48.219Z,64.22
2023-06-04T00:04:15.941Z,64.28
2023-06-04T00:06:43.374Z,64.06
2023-06-04T00:09:11.149Z,64.33
2023-06-04T00:11:38.645Z,64.16
2023-06-04T00:14:06.036Z,64.50
2023-06-04T00:16:36.486Z,64.55
2023-06-04T00:19:03.962Z,64.80
2023-06-04T00:21:31.297Z,65.12
2023-06-04T00:23:58.957Z,64.68
2023-06-04T00:26:26.666Z,64.96
2023-06-04T00:28:55.804Z,64.82
2023-06-04T00:31:23.306Z,65.08
2023-06-04T00:33:50.724Z,65.15
2023-06-04T00:36:18.093Z,65.12
2023-06-04T00:38:45.621Z,65.34
2023-06-04T00:41:13.503Z,65.33
2023-06-04T00:43:40.971Z,65.85
2023-06-04T00:46:08.474Z,65.84
2023-06-04T00:48:38.177Z,65.94
2023-06-04T00:51:05.973Z,65.82
2023-06-04T00:53:33.937Z,65.90
2023-06-04T00:56:01.253Z,66.31
2023-06-04T00:58:28.747Z,66.16
2023-06-04T01:00:56.394Z,66.26
2023-06-04T01:03:24.081Z,66.43
2023-06-04T01:06:05.505Z,66.54
2023-06-04T01:09:29.977Z,66.72
2023-06-04T01:12:00.460Z,66.67
2023-06-04T01:14:27.998Z,67.15
2023-06-04T01:17:19.296Z,66.95
2023-06-04T01:20:24.303Z,67.18
2023-06-04T01:22:57.798Z,66.69
2023-06-04T01:25:35.065Z,66.81
2023-06-04T01:28:04.460Z,66.81
2023-06-04T01:30:33.645Z,66.51
2023-06-04T01:33:01.565Z,66.79
2023-06-04T01:35:29.565Z,66.86
2023-06-04T01:37:57.259Z,66.95
2023-06-04T01:40:24.891Z,66.85
2023-06-04T01:42:52.408Z,66.93
2023-06-04T01:45:19.784Z,66.97
2023-06-04T01:47:47.804Z,66.78
2023-06-04T01:50:15.246Z,67.14
2023-06-04T01:52:42.600Z,66.88
2023-06-04T01:55:13.355Z,66.91
2023-06-04T01:57:41.723Z,67.20
2023-06-04T02:00:11.559Z,67.14
2023-06-04T02:02:43.599Z,67.28
2023-06-04T02:05:11.422Z,67.32
2023-06-04T02:07:40.026Z,67.10
2023-06-04T02:10:10.790Z,67.39
2023-06-04T02:12:39.325Z,67.26
2023-06-04T02:15:08.553Z,66.78
2023-06-04T02:17:42.239Z,66.96
2023-06-04T02:20:10.971Z,66.99
2023-06-04T02:22:38.886Z,67.30
2023-06-04T02:25:06.691Z,67.21
2023-06-04T02:27:34.094Z,67.36
2023-06-04T02:30:01.581Z,67.00
2023-06-04T02:32:30.176Z,67.34
2023-06-04T02:34:57.815Z,67.10
2023-06-04T02:37:25.744Z,67.13
2023-06-04T02:39:53.159Z,67.22
2023-06-04T02:42:20.519Z,66.88
2023-06-04T02:44:47.850Z,67.14
2023-06-04T02:47:15.414Z,67.27
2023-06-04T02:49:43.214Z,66.78
2023-06-04T02:52:10.576Z,66.92
2023-06-04T02:54:37.937Z,66.98
2023-06-04T02:57:05.727Z,67.06
2023-06-04T02:59:33.723Z,67.10
2023-06-04T03:02:01.419Z,67.10
2023-06-04T03:04:35.638Z,67.32
2023-06-04T03:07:03.764Z,67.05
2023-06-04T03:09:34.745Z,66.85
2023-06-04T03:12:03.180Z,67.02
2023-06-04T03:14:34.292Z,67.03
2023-06-04T03:17:02.673Z,66.92
2023-06-04T03:19:30.008Z,67.17
2023-06-04T03:21:58.117Z,67.10
2023-06-04T03:24:25.687Z,66.92
2023-06-04T03:26:53.051Z,66.93
2023-06-04T03:29:20.445Z,66.84
2023-06-04T03:31:49.295Z,66.51
2023-06-04T03:34:16.740Z,66.43
2023-06-04T03:36:44.371Z,65.97
2023-06-04T03:39:12.598Z,65.79
2023-06-04T03:41:40.091Z,65.50
2023-06-04T03:44:31.132Z,65.33
2023-06-04T03:47:23.928Z,65.32
2023-06-04T03:49:51.614Z,65.67
2023-06-04T03:52:19.843Z,65.35
2023-06-04T03:54:47.480Z,64.67
2023-06-04T03:57:14.938Z,64.16
2023-06-04T03:59:42.322Z,63.13
2023-06-04T04:02:10.022Z,63.14
2023-06-04T04:04:40.560Z,62.50
2023-06-04T04:07:08.847Z,61.66
2023-06-04T04:09:37.298Z,60.58
2023-06-04T04:12:05.518Z,60.81
2023-06-04T04:14:34.253Z,60.69
2023-06-04T04:17:02.718Z,60.34
2023-06-04T04:19:32.192Z,60.11
2023-06-04T04:21:59.891Z,59.96
2023-06-04T04:24:28.381Z,59.27
2023-06-04T04:27:00.103Z,58.70
2023-06-04T04:29:28.852Z,58.73
2023-06-04T04:31:57.584Z,58.31
2023-06-04T04:34:27.530Z,57.66
2023-06-04T04:36:55.270Z,56.83
2023-06-04T04:39:24.282Z,55.70
2023-06-04T04:41:52.773Z,54.86
2023-06-04T04:44:20.933Z,54.04
2023-06-04T04:46:51.453Z,53.57
2023-06-04T04:49:19.176Z,53.29
2023-06-04T04:51:46.998Z,52.80
2023-06-04T04:54:14.872Z,52.46
2023-06-04T04:56:42.403Z,51.91
2023-06-04T04:59:09.766Z,51.76
2023-06-04T05:01:37.246Z,51.18
2023-06-04T05:04:09.538Z,50.50
2023-06-04T05:06:39.157Z,50.15
2023-06-04T05:09:08.706Z,49.93
2023-06-04T05:11:36.959Z,49.30
2023-06-04T05:14:05.146Z,48.81
2023-06-04T05:16:32.900Z,48.45
2023-06-04T05:19:01.631Z,48.15
2023-06-04T05:21:30.826Z,47.63
2023-06-04T05:27:16.786Z,46.61
2023-06-04T05:29:44.648Z,46.27
2023-06-04T05:32:12.512Z,45.75
2023-06-04T05:34:41.008Z,44.95
2023-06-04T05:37:12.289Z,44.68
2023-06-04T05:39:40.822Z,44.85
2023-06-04T05:42:12.709Z,45.23
2023-06-04T05:44:41.049Z,45.74
2023-06-04T05:47:09.142Z,46.33
2023-06-04T05:49:36.866Z,47.17
2023-06-04T05:52:05.169Z,47.12
2023-06-04T05:54:34.042Z,46.18
2023-06-04T05:57:02.081Z,46.23
2023-06-04T05:59:30.684Z,46.54
2023-06-04T06:01:58.645Z,46.75
2023-06-04T06:04:26.895Z,46.62
2023-06-04T06:06:54.813Z,46.10
2023-06-04T06:09:22.863Z,45.66
2023-06-04T06:11:50.731Z,46.63
2023-06-04T06:14:18.218Z,47.16
2023-06-04T06:16:46.335Z,47.02
2023-06-04T06:19:14.302Z,46.23
2023-06-04T06:21:41.917Z,46.32
2023-06-04T06:24:09.676Z,46.30
2023-06-04T06:26:38.328Z,45.69
2023-06-04T06:29:07.203Z,44.71
2023-06-04T06:31:34.993Z,43.73
2023-06-04T06:34:02.699Z,43.14
2023-06-04T06:36:31.019Z,42.95
2023-06-04T06:38:58.618Z,42.60
2023-06-04T06:41:27.312Z,41.47
2023-06-04T06:43:54.763Z,40.70
2023-06-04T06:46:22.224Z,40.37
2023-06-04T06:48:49.889Z,40.30
2023-06-04T06:51:17.780Z,40.08
2023-06-04T06:53:45.215Z,40.33
2023-06-04T06:56:12.677Z,40.09
2023-06-04T06:58:40.168Z,39.17
2023-06-04T07:01:07.797Z,39.14
2023-06-04T07:03:35.707Z,39.25
2023-06-04T07:06:03.614Z,38.53
2023-06-04T07:08:30.982Z,38.59
2023-06-04T07:10:58.998Z,38.59
2023-06-04T07:13:26.915Z,38.57
2023-06-04T07:15:54.449Z,38.60
2023-06-04T07:18:21.925Z,38.90
2023-06-04T07:20:49.404Z,38.96
2023-06-04T07:23:24.670Z,39.00
2023-06-04T07:25:55.738Z,39.13
2023-06-04T07:28:23.781Z,38.80
2023-06-04T07:30:51.457Z,38.46
2023-06-04T07:33:19.246Z,38.80
2023-06-04T07:35:46.580Z,39.15
2023-06-04T07:38:14.016Z,39.07
2023-06-04T07:40:41.621Z,39.16
2023-06-04T07:43:09.008Z,39.10
2023-06-04T07:45:36.497Z,39.28
2023-06-04T07:48:04.529Z,38.96
2023-06-04T07:50:34.674Z,38.91
2023-06-04T07:53:03.821Z,38.86
2023-06-04T07:55:32.955Z,39.06
2023-06-04T07:58:00.345Z,39.00
2023-06-04T08:00:27.759Z,39.01
2023-06-04T08:02:55.286Z,38.49
2023-06-04T08:05:22.788Z,38.45
2023-06-04T08:07:50.196Z,37.65
2023-06-04T08:10:17.700Z,37.49
2023-06-04T08:12:45.095Z,37.70
2023-06-04T08:15:13.003Z,37.85
2023-06-04T08:17:40.534Z,37.93
2023-06-04T08:20:08.291Z,37.74
2023-06-04T08:22:36.882Z,37.97
2023-06-04T08:25:06.005Z,37.29
2023-06-04T08:27:33.464Z,36.85
2023-06-04T08:30:01.307Z,36.88
2023-06-04T08:32:28.975Z,37.03
2023-06-04T08:34:56.511Z,37.38
2023-06-04T08:37:26.014Z,37.16
2023-06-04T08:39:54.209Z,36.85
2023-06-04T08:42:31.860Z,36.91
2023-06-04T08:44:59.475Z,36.57
2023-06-04T08:47:29.826Z,35.88
2023-06-04T08:50:00.870Z,35.74
2023-06-04T08:52:28.699Z,35.58
2023-06-04T08:54:56.904Z,35.99
2023-06-04T08:57:24.478Z,36.31
2023-06-04T08:59:51.902Z,35.54
2023-06-04T09:02:19.432Z,35.42
2023-06-04T09:04:47.101Z,35.26
2023-06-04T09:07:14.755Z,34.54
2023-06-04T09:09:44.188Z,34.49
2023-06-04T09:12:13.056Z,34.37
2023-06-04T09:14:40.552Z,34.05
2023-06-04T09:17:08.027Z,33.88
2023-06-04T09:19:35.590Z,33.80
2023-06-04T09:22:04.012Z,32.67
2023-06-04T09:24:42.980Z,31.78
2023-06-04T09:27:15.421Z,31.43
2023-06-04T09:29:52.580Z,31.32
2023-06-04T09:32:27.893Z,30.70
2023-06-04T09:34:59.776Z,29.37
2023-06-04T09:37:28.023Z,29.33
2023-06-04T09:39:58.611Z,28.78
2023-06-04T09:42:26.080Z,28.10
2023-06-04T09:44:53.609Z,28.02
2023-06-04T09:47:21.761Z,27.78
2023-06-04T09:49:52.514Z,27.45
2023-06-04T09:52:22.399Z,26.24
2023-06-04T09:54:49.883Z,26.45
2023-06-04T09:57:20.585Z,26.45
2023-06-04T09:59:50.887Z,26.34
2023-06-04T10:02:22.594Z,26.06
2023-06-04T10:04:59.613Z,25.70
2023-06-04T10:07:27.424Z,25.66
2023-06-04T10:09:54.895Z,25.99
2023-06-04T10:12:31.553Z,25.93
2023-06-04T10:15:17.600Z,26.09
2023-06-04T10:17:45.010Z,25.64
2023-06-04T10:20:12.477Z,25.50
2023-06-04T10:22:40.060Z,24.94
2023-06-04T10:25:08.061Z,24.48
2023-06-04T10:27:37.180Z,24.68
2023-06-04T10:30:06.762Z,24.46
2023-06-04T10:32:37.571Z,23.71
2023-06-04T10:35:09.311Z,23.29
2023-06-04T10:37:37.141Z,23.62
2023-06-04T10:40:07.286Z,23.32
2023-06-04T10:42:43.059Z,23.15
2023-06-04T10:45:13.640Z,23.08
2023-06-04T10:47:42.426Z,23.06
2023-06-04T10:50:14.876Z,22.48
2023-06-04T10:52:54.815Z,22.38
2023-06-04T10:55:22.482Z,22.93
2023-06-04T10:57:58.617Z,23.21
2023-06-04T11:00:55.559Z,23.69
2023-06-04T11:03:23.140Z,23.92
2023-06-04T11:05:51.830Z,24.31
2023-06-04T11:08:29.935Z,23.74
2023-06-04T11:10:57.347Z,23.20
2023-06-04T11:13:27.082Z,23.04
2023-06-04T11:15:54.990Z,22.63
2023-06-04T11:18:25.253Z,22.42
2023-06-04T11:21:02.978Z,22.53
2023-06-04T11:23:30.610Z,22.54
2023-06-04T11:25:59.445Z,21.94
2023-06-04T11:28:26.970Z,21.80
2023-06-04T11:31:04.524Z,21.79
2023-06-04T11:33:45.964Z,21.85
2023-06-04T11:36:26.327Z,22.17
2023-06-04T11:38:58.806Z,22.43
2023-06-04T11:41:31.249Z,22.05
2023-06-04T11:43:58.879Z,22.05
2023-06-04T11:46:27.449Z,21.46
2023-06-04T11:48:55.048Z,21.45
2023-06-04T11:51:22.594Z,20.94
2023-06-04T11:53:50.014Z,20.99
2023-06-04T11:56:17.521Z,21.12
2023-06-04T11:58:46.808Z,21.00
2023-06-04T12:01:14.535Z,20.71
2023-06-04T12:03:42.837Z,20.48
2023-06-04T12:06:18.532Z,21.03
2023-06-04T12:08:50.481Z,21.02
2023-06-04T12:11:36.022Z,21.14
2023-06-04T12:14:07.187Z,21.31
2023-06-04T12:16:37.857Z,21.78
2023-06-04T12:19:08.979Z,21.73
2023-06-04T12:21:36.532Z,21.82
2023-06-04T12:24:08.784Z,22.14
2023-06-04T12:26:38.995Z,22.38
2023-06-04T12:29:14.605Z,22.42
2023-06-04T12:31:44.190Z,21.87
2023-06-04T12:34:12.872Z,22.17
2023-06-04T12:36:40.425Z,22.70
2023-06-04T12:39:08.100Z,22.94
2023-06-04T12:41:35.711Z,22.95
2023-06-04T12:44:03.301Z,22.61
2023-06-04T12:46:30.859Z,22.27
2023-06-04T12:48:58.411Z,21.95
2023-06-04T12:51:25.974Z,21.65
2023-06-04T12:53:54.219Z,21.54
2023-06-04T12:56:21.570Z,21.09
2023-06-04T12:58:49.269Z,20.92
2023-06-04T13:01:17.028Z,20.32
2023-06-04T13:03:44.884Z,20.15
2023-06-04T13:06:12.563Z,20.03
2023-06-04T13:08:40.003Z,20.00
2023-06-04T13:11:07.847Z,19.84
2023-06-04T13:13:35.788Z,19.82
2023-06-04T13:16:03.781Z,19.48
2023-06-04T13:18:31.239Z,19.62
2023-06-04T13:20:58.675Z,19.72
2023-06-04T13:23:34.323Z,20.08
2023-06-04T13:27:09.209Z,20.21
2023-06-04T13:29:36.713Z,20.81
2023-06-04T13:32:05.163Z,21.63
2023-06-04T13:34:33.340Z,21.97
2023-06-04T13:37:00.858Z,22.58
2023-06-04T13:39:28.413Z,23.40
2023-06-04T13:41:55.813Z,24.52
2023-06-04T13:44:27.418Z,25.17
2023-06-04T13:46:55.163Z,25.77
2023-06-04T13:49:22.572Z,26.49
2023-06-04T13:51:50.174Z,27.47
2023-06-04T13:54:17.728Z,27.88
2023-06-04T13:56:45.231Z,28.11
2023-06-04T13:59:12.754Z,28.51
2023-06-04T14:01:41.334Z,28.43
2023-06-04T14:04:08.907Z,28.44
2023-06-04T14:06:37.371Z,28.81
2023-06-04T14:09:08.228Z,28.85
2023-06-04T14:11:36.186Z,29.13
2023-06-04T14:14:03.688Z,29.44
2023-06-04T14:16:31.300Z,29.82
2023-06-04T14:18:58.856Z,29.81
2023-06-04T14:21:27.445Z,30.26
2023-06-04T14:23:55.018Z,30.59
2023-06-04T14:26:23.644Z,30.71
2023-06-04T14:28:51.027Z,30.95
2023-06-04T14:31:18.478Z,31.06
2023-06-04T14:33:45.957Z,31.18
2023-06-04T14:36:13.383Z,31.30
2023-06-04T14:38:40.897Z,31.43
2023-06-04T14:41:08.597Z,31.50
2023-06-04T14:43:36.472Z,31.47
2023-06-04T14:46:04.313Z,31.32
2023-06-04T14:48:31.774Z,31.23
2023-06-04T14:50:59.215Z,31.30
2023-06-04T14:53:26.784Z,31.12
2023-06-04T14:55:54.258Z,30.48
2023-06-04T14:58:21.740Z,30.41
2023-06-04T15:00:49.236Z,30.58
2023-06-04T15:03:16.856Z,30.67
2023-06-04T15:05:44.679Z,30.95
2023-06-04T15:08:12.130Z,31.57
2023-06-04T15:10:39.462Z,32.10
2023-06-04T15:13:07.002Z,31.97
2023-06-04T15:15:34.631Z,31.80
2023-06-04T15:18:02.330Z,31.73
2023-06-04T15:20:29.964Z,31.70
2023-06-04T15:22:57.373Z,31.59
2023-06-04T15:25:24.881Z,31.70
2023-06-04T15:27:52.322Z,31.25
2023-06-04T15:30:21.746Z,30.88
2023-06-04T15:32:49.315Z,30.90
2023-06-04T15:35:17.038Z,30.79
2023-06-04T15:37:44.436Z,30.91
2023-06-04T15:40:12.158Z,31.14
2023-06-04T15:42:39.628Z,31.48
2023-06-04T15:45:08.178Z,31.16
2023-06-04T15:47:35.692Z,31.22
2023-06-04T15:50:03.542Z,31.34
2023-06-04T15:52:31.200Z,31.41
2023-06-04T15:54:58.804Z,31.64
2023-06-04T15:57:26.753Z,32.00
2023-06-04T15:59:54.329Z,31.92
2023-06-04T16:02:21.713Z,31.63
2023-06-04T16:04:49.099Z,31.87
2023-06-04T16:07:16.765Z,32.19
2023-06-04T16:09:44.414Z,31.84
2023-06-04T16:12:12.021Z,31.82
2023-06-04T16:14:39.568Z,31.91
2023-06-04T16:17:07.323Z,32.12
2023-06-04T16:19:35.042Z,32.41
2023-06-04T16:22:02.487Z,32.97
2023-06-04T16:24:31.189Z,32.92
2023-06-04T16:26:58.680Z,32.93
2023-06-04T16:29:26.205Z,33.02
2023-06-04T16:31:53.804Z,32.98
2023-06-04T16:34:21.221Z,33.18
2023-06-04T16:36:48.818Z,33.04
2023-06-04T16:39:16.536Z,33.09
2023-06-04T16:41:43.993Z,33.74
2023-06-04T16:44:11.396Z,33.92
2023-06-04T16:46:38.929Z,34.58
2023-06-04T16:49:06.356Z,35.07
2023-06-04T16:51:33.761Z,35.35
2023-06-04T16:54:01.301Z,34.66
2023-06-04T16:56:29.012Z,35.37
2023-06-04T16:58:56.468Z,35.67
2023-06-04T17:01:24.034Z,36.10
2023-06-04T17:03:52.924Z,36.10
2023-06-04T17:06:21.349Z,36.73
2023-06-04T17:08:48.903Z,37.04
2023-06-04T17:11:16.298Z,36.76
2023-06-04T17:13:44.019Z,36.08
2023-06-04T17:16:11.497Z,36.00
2023-06-04T17:18:39.163Z,36.86
2023-06-04T17:21:06.674Z,37.28
2023-06-04T17:23:34.086Z,37.52
2023-06-04T17:26:01.932Z,37.62
2023-06-04T17:28:29.486Z,38.16
2023-06-04T17:30:57.045Z,38.54
2023-06-04T17:33:24.574Z,38.52
2023-06-04T17:35:52.115Z,38.03
2023-06-04T17:38:19.572Z,37.75
2023-06-04T17:40:47.042Z,38.24
2023-06-04T17:43:14.496Z,39.14
2023-06-04T17:45:42.736Z,39.50
2023-06-04T17:48:10.176Z,37.81
2023-06-04T17:50:37.607Z,37.41
2023-06-04T17:53:05.081Z,37.31
2023-06-04T17:55:32.466Z,37.01
2023-06-04T17:57:59.842Z,36.87
2023-06-04T18:00:27.382Z,36.77
2023-06-04T18:02:54.789Z,36.94
2023-06-04T18:05:22.250Z,37.42
2023-06-04T18:07:51.189Z,37.94
2023-06-04T18:10:18.661Z,38.80
2023-06-04T18:12:46.909Z,39.90
2023-06-04T18:15:17.244Z,40.27
2023-06-04T18:17:44.776Z,40.28
2023-06-04T18:20:12.357Z,40.73
2023-06-04T18:22:40.226Z,41.02
2023-06-04T18:25:09.140Z,41.18
2023-06-04T18:27:37.204Z,41.58
2023-06-04T18:30:05.853Z,41.76
2023-06-04T18:32:33.453Z,41.87
2023-06-04T18:35:01.416Z,42.14
2023-06-04T18:37:29.439Z,42.51
2023-06-04T18:39:57.122Z,42.61
2023-06-04T18:42:30.793Z,42.82
2023-06-04T18:45:01.000Z,43.00
2023-06-04T18:47:28.680Z,43.32
2023-06-04T18:49:56.922Z,43.94
2023-06-04T18:52:24.442Z,44.30
2023-06-04T18:54:51.828Z,44.83
2023-06-04T18:57:19.365Z,45.03
2023-06-04T18:59:46.825Z,45.16
2023-06-04T19:02:15.374Z,45.21
2023-06-04T19:04:42.783Z,45.20
2023-06-04T19:07:10.321Z,45.37
2023-06-04T19:09:37.931Z,45.54
2023-06-04T19:12:05.665Z,45.61
2023-06-04T19:14:34.702Z,45.74
2023-06-04T19:17:03.412Z,45.78
2023-06-04T19:19:31.203Z,45.95
2023-06-04T19:21:59.495Z,45.97
2023-06-04T19:24:27.107Z,46.05
2023-06-04T19:26:54.607Z,46.25
2023-06-04T19:29:21.968Z,46.49
2023-06-04T19:31:49.621Z,46.75
2023-06-04T19:34:17.338Z,46.81
2023-06-04T19:36:44.821Z,46.91
2023-06-04T19:39:12.236Z,47.28
2023-06-04T19:41:39.615Z,47.34
2023-06-04T19:44:07.201Z,47.93
2023-06-04T19:46:34.662Z,47.86
2023-06-04T19:49:02.537Z,47.94
2023-06-04T19:51:30.060Z,48.16
2023-06-04T19:53:57.752Z,48.27
2023-06-04T19:56:26.809Z,48.29
2023-06-04T19:58:54.324Z,48.58
2023-06-04T20:01:38.380Z,48.60
2023-06-04T20:04:09.785Z,48.78
2023-06-04T20:06:37.741Z,48.72
2023-06-04T20:09:05.598Z,48.85
2023-06-04T20:11:33.174Z,49.25
2023-06-04T20:14:02.543Z,49.43
2023-06-04T20:16:30.948Z,49.57
2023-06-04T20:18:58.823Z,49.66
2023-06-04T20:21:26.360Z,49.70
2023-06-04T20:24:02.238Z,49.64
2023-06-04T20:26:29.933Z,49.73
2023-06-04T20:28:57.617Z,49.31
2023-06-04T20:31:27.411Z,49.17
2023-06-04T20:33:58.351Z,47.19
2023-06-04T20:36:26.111Z,47.01
2023-06-04T20:38:53.736Z,47.34
2023-06-04T20:41:25.584Z,47.90
2023-06-04T20:43:54.805Z,48.50
2023-06-04T20:46:22.414Z,48.72
2023-06-04T20:48:49.983Z,48.69
2023-06-04T20:51:17.509Z,49.00
2023-06-04T20:53:49.042Z,49.15
2023-06-04T20:56:16.663Z,49.47
2023-06-04T20:58:44.183Z,49.75
2023-06-04T21:01:13.083Z,50.26
2023-06-04T21:03:40.679Z,50.33
2023-06-04T21:06:08.705Z,50.58
2023-06-04T21:08:36.792Z,50.69
2023-06-04T21:11:04.237Z,50.68
2023-06-04T21:13:31.653Z,50.76
2023-06-04T21:15:59.085Z,50.97
2023-06-04T21:18:26.923Z,51.09
2023-06-04T21:20:54.561Z,51.28
2023-06-04T21:23:22.515Z,51.47
2023-06-04T21:25:50.785Z,51.59
2023-06-04T21:28:18.191Z,52.01
2023-06-04T21:30:45.557Z,52.08
2023-06-04T21:33:13.146Z,51.94
2023-06-04T21:35:40.577Z,52.12
2023-06-04T21:38:07.979Z,51.75
2023-06-04T21:40:35.482Z,51.57
2023-06-04T21:43:02.894Z,51.41
2023-06-04T21:45:30.583Z,51.42
2023-06-04T21:47:58.697Z,52.10
2023-06-04T21:50:26.230Z,52.34
2023-06-04T21:52:53.824Z,52.76
2023-06-04T21:55:21.272Z,53.24
2023-06-04T21:57:48.752Z,53.57
2023-06-04T22:00:16.977Z,54.02
2023-06-04T22:02:44.609Z,54.06
2023-06-04T22:05:12.674Z,54.39
2023-06-04T22:07:40.274Z,54.87
2023-06-04T22:10:08.512Z,54.80
2023-06-04T22:12:35.986Z,54.84
2023-06-04T22:15:03.955Z,54.71
2023-06-04T22:17:31.462Z,54.48
2023-06-04T22:19:59.021Z,54.72
2023-06-04T22:22:26.401Z,55.05
2023-06-04T22:24:53.876Z,55.35
2023-06-04T22:27:21.297Z,55.78
2023-06-04T22:41:23.579Z,55.61
2023-06-04T22:43:50.997Z,55.42
2023-06-04T22:46:18.372Z,55.40
2023-06-04T22:48:45.866Z,54.15
2023-06-04T22:51:13.358Z,52.88
2023-06-04T22:53:41.068Z,53.45
2023-06-04T22:56:10.465Z,53.66
2023-06-04T22:58:38.369Z,53.80
2023-06-04T23:01:05.860Z,53.97
2023-06-04T23:03:33.745Z,54.28
2023-06-04T23:06:01.992Z,54.49
2023-06-04T23:08:29.369Z,54.67
2023-06-04T23:10:56.753Z,54.87
2023-06-04T23:13:24.168Z,54.75
2023-06-04T23:15:51.677Z,54.37
2023-06-04T23:18:19.209Z,54.51
2023-06-04T23:20:49.138Z,53.93
2023-06-04T23:23:16.564Z,53.96
2023-06-04T23:25:43.934Z,54.25
2023-06-04T23:28:11.488Z,54.34
2023-06-04T23:30:38.882Z,54.57
2023-06-04T23:33:06.412Z,54.97
2023-06-04T23:35:34.236Z,55.19
2023-06-04T23:38:02.310Z,55.73
2023-06-04T23:40:29.797Z,55.99
2023-06-04T23:42:57.293Z,56.14
2023-06-04T23:45:24.802Z,56.48
2023-06-04T23:47:52.574Z,56.45
2023-06-04T23:50:20.075Z,56.73
2023-06-04T23:52:47.567Z,56.57
2023-06-04T23:55:15.132Z,56.73
2023-06-04T23:57:42.783Z,56.79
